KLUL

Hesler-Noble Field Airport

Laurel, Mississippi, USA
METAR KLUL 250515Z AUTO 00000KT 10SM CLR 12/12 A3004 RMK AO2 T01240124
Observed Flight Rules
Apr-25 @ 05:15 UTC (3 hours ago) Visual Flight Rules
Visibility Clouds
10 miles
  • Clear skies
Temperatures Readings
Current 12°C / 54°F
Dewpoint 12°C / 54°F
Humidity 100%
Altimeter 30.04" Hg
Pressure 1017 hPa
Elevation 73
METAR KLUL 250515Z AUTO 00000KT 10SM CLR 12/12 A3004 RMK AO2 T01240124
Observed Flight Rules
Apr-25 @ 05:15 UTC
(3 hours ago)
VFR
Clouds
  • Clear skies
Temperature Dewpoint
12°C / 54°F 12°C / 54°F
Humidity Altimeter Pressure
100% 30.04" Hg 1017 hPa